Time;durP1;ratioP1;P1;durP2;ratioP2;P2;SDS_P1;SDS_P2;PMS_P1;PMS_P2;Temp;Humidity;BMP_temperature;BMP_pressure;BME280_temperature;BME280_humidity;BME280_pressure;Samples;Min_cycle;Max_cycle;Signal;HPM_P1;HPM_P2
2022/05/14 00:03:23;;;;;;;6.93;4.45;;;13.50;99.90;;;;;;20833836;28;20037;-77
2022/05/14 00:13:24;;;;;;;6.75;4.05;;;13.40;99.90;;;;;;20833036;28;20078;-77
2022/05/14 00:23:26;;;;;;;9.95;4.38;;;13.20;99.90;;;;;;20832622;28;20037;-76
2022/05/14 00:33:27;;;;;;;7.25;3.70;;;13.10;99.90;;;;;;20796798;28;20487;-76
2022/05/14 00:43:29;;;;;;;5.33;3.80;;;13.40;99.90;;;;;;20830843;28;20052;-77
2022/05/14 00:53:35;;;;;;;6.38;4.35;;;13.50;99.90;;;;;;20830025;28;20387;-76
2022/05/14 01:03:36;;;;;;;10.77;4.65;;;13.50;99.90;;;;;;20811472;28;20041;-77
2022/05/14 01:13:37;;;;;;;9.50;4.47;;;13.60;99.90;;;;;;20810860;28;20443;-76
2022/05/14 01:34:06;;;;;;;9.32;4.03;;;13.60;99.90;;;;;;20810421;28;20408;-76
2022/05/14 01:44:08;;;;;;;7.18;4.18;;;13.60;99.90;;;;;;20808364;28;20025;-76
2022/05/14 01:54:09;;;;;;;8.17;4.80;;;13.40;99.90;;;;;;20825272;28;20037;-76
2022/05/14 02:04:12;;;;;;;;;;;13.30;99.90;;;;;;20812692;28;20302;-76
2022/05/14 02:14:13;;;;;;;9.13;4.43;;;13.10;99.90;;;;;;20825473;28;19909;-75
2022/05/14 02:24:14;;;;;;;8.77;4.60;;;12.90;99.90;;;;;;20807051;28;20514;-76
2022/05/14 02:34:17;;;;;;;7.35;4.78;;;12.70;99.90;;;;;;20806854;28;20037;-76
2022/05/14 02:44:18;;;;;;;9.18;5.07;;;12.70;99.90;;;;;;20806373;28;20499;-76
2022/05/14 02:54:19;;;;;;;9.03;5.17;;;12.60;99.90;;;;;;20865649;23;20084;-76
2022/05/14 03:04:29;;;;;;;7.60;4.43;;;12.60;99.90;;;;;;20968898;28;20027;-76
2022/05/14 03:14:32;;;;;;;;;;;12.50;99.90;;;;;;20985448;28;20028;-75
2022/05/14 03:24:36;;;;;;;14.05;4.95;;;12.20;99.90;;;;;;20984052;28;20394;-76
2022/05/14 03:34:37;;;;;;;21.83;5.70;;;12.30;99.90;;;;;;20973273;28;20032;-76
2022/05/14 03:44:38;;;;;;;8.68;4.88;;;12.20;99.90;;;;;;20937562;28;20037;-75
2022/05/14 03:54:39;;;;;;;10.40;4.97;;;12.10;99.90;;;;;;20981618;28;20032;-74
2022/05/14 04:04:40;;;;;;;11.57;4.90;;;12.00;99.90;;;;;;20980988;28;20042;-75
2022/05/14 04:14:41;;;;;;;11.97;5.60;;;11.90;99.90;;;;;;20979445;28;20082;-75
2022/05/14 04:24:42;;;;;;;13.37;6.40;;;11.70;99.90;;;;;;20997447;28;20032;-76
2022/05/14 04:34:45;;;;;;;9.32;6.05;;;11.80;99.90;;;;;;20978855;28;20029;-76
2022/05/14 04:44:47;;;;;;;8.85;5.25;;;11.90;99.90;;;;;;20926064;28;20046;-75
2022/05/14 04:54:48;;;;;;;8.57;6.53;;;12.00;99.90;;;;;;20894340;28;20040;-75
2022/05/14 05:04:49;;;;;;;8.80;5.50;;;12.10;99.90;;;;;;20893727;28;20083;-75
2022/05/14 05:14:50;;;;;;;7.70;4.97;;;12.30;99.90;;;;;;20893032;28;20084;-75
2022/05/14 05:24:51;;;;;;;15.83;4.90;;;12.80;99.90;;;;;;20892261;28;20044;-75
2022/05/14 05:34:52;;;;;;;10.77;5.73;;;13.30;99.90;;;;;;20875312;28;20033;-75
2022/05/14 05:44:53;;;;;;;9.63;5.20;;;13.70;99.90;;;;;;20908784;28;20025;-76
2022/05/14 06:05:17;;;;;;;10.57;5.70;;;14.60;99.90;;;;;;20909275;28;20037;-76
2022/05/14 06:15:19;;;;;;;11.70;6.53;;;15.10;99.90;;;;;;20907465;28;20028;-75
2022/05/14 06:25:20;;;;;;;9.38;6.28;;;15.30;99.90;;;;;;20906767;28;20037;-76
2022/05/14 06:35:21;;;;;;;12.50;7.17;;;15.70;99.90;;;;;;20913325;28;20112;-75
2022/05/14 06:45:22;;;;;;;10.97;6.70;;;16.00;99.90;;;;;;20972102;28;20425;-77
2022/05/14 06:55:26;;;;;;;26.10;10.97;;;16.60;99.90;;;;;;21005116;28;20043;-75
2022/05/14 07:15:46;;;;;;;13.45;4.78;;;17.60;99.90;;;;;;21010577;28;20040;-76
2022/05/14 07:25:47;;;;;;;22.53;10.90;;;18.20;99.90;;;;;;20984842;28;20036;-76
2022/05/14 07:35:49;;;;;;;10.90;4.35;;;18.60;99.90;;;;;;21003428;28;20024;-77
2022/05/14 07:45:55;;;;;;;9.37;3.20;;;18.30;99.90;;;;;;21000126;28;20151;-76
2022/05/14 07:55:57;;;;;;;6.78;2.97;;;19.30;99.90;;;;;;20982395;28;20072;-77
2022/05/14 08:05:59;;;;;;;10.50;2.95;;;19.80;99.90;;;;;;20999005;28;20024;-76
2022/05/14 08:16:01;;;;;;;5.88;2.22;;;21.30;99.90;;;;;;20982621;28;20406;-76
2022/05/14 08:26:03;;;;;;;3.70;1.85;;;20.90;99.90;;;;;;21000681;28;20525;-76
2022/05/14 08:36:04;;;;;;;5.18;1.60;;;22.10;99.90;;;;;;21001891;28;20029;-77
2022/05/14 08:46:13;;;;;;;4.45;1.48;;;22.40;99.90;;;;;;21003233;28;20025;-75
2022/05/14 08:56:26;;;;;;;8.80;1.90;;;23.00;99.90;;;;;;20894066;23;20053;-79
2022/05/14 09:06:27;;;;;;;4.07;1.30;;;23.30;99.90;;;;;;20837962;28;20041;-79
2022/05/14 09:16:30;;;;;;;5.50;1.43;;;23.20;99.90;;;;;;20837396;28;20052;-80
2022/05/14 09:26:36;;;;;;;12.00;1.80;;;24.10;99.90;;;;;;20837009;28;20041;-80
2022/05/14 09:36:37;;;;;;;3.92;1.48;;;23.80;99.90;;;;;;20836620;28;20495;-79
2022/05/14 09:46:40;;;;;;;3.47;1.70;;;24.60;99.90;;;;;;20835987;28;20048;-79
2022/05/14 09:56:59;;;;;;;;;;;24.90;99.90;;;;;;20836825;28;20430;-78
2022/05/14 10:07:07;;;;;;;5.90;1.80;;;25.20;99.90;;;;;;20821671;28;19917;-79
2022/05/14 10:17:26;;;;;;;6.68;1.70;;;25.80;99.90;;;;;;20802571;28;20053;-78
2022/05/14 10:27:32;;;;;;;8.00;2.10;;;25.70;99.90;;;;;;20800131;28;20044;-79
2022/05/14 10:37:43;;;;;;;5.93;2.72;;;25.00;99.90;;;;;;20795180;28;20030;-78
2022/05/14 10:47:58;;;;;;;2.65;1.95;;;26.70;99.90;;;;;;20804467;28;20083;-78
2022/05/14 10:58:07;;;;;;;11.63;4.55;;;26.90;99.90;;;;;;20802624;28;20132;-78
2022/05/14 11:08:14;;;;;;;4.37;2.00;;;26.60;99.90;;;;;;20804399;28;20033;-78
2022/05/14 11:18:17;;;;;;;8.75;2.40;;;25.90;99.90;;;;;;20809001;28;20067;-79
2022/05/14 11:28:18;;;;;;;16.02;4.93;;;27.10;99.90;;;;;;20824076;28;20037;-76
2022/05/14 11:38:25;;;;;;;28.67;15.20;;;27.00;99.90;;;;;;20806083;28;20446;-77
2022/05/14 11:48:31;;;;;;;5.95;1.90;;;27.80;99.90;;;;;;20829979;28;21283;-79
2022/05/14 11:58:42;;;;;;;4.32;1.67;;;27.80;99.90;;;;;;20736707;28;20508;-78
2022/05/14 12:09:20;;;;;;;5.73;2.80;;;26.00;99.90;;;;;;20742449;28;20034;-78
2022/05/14 12:19:32;;;;;;;5.00;2.55;;;26.30;99.90;;;;;;20757257;28;20025;-79
2022/05/14 12:29:34;;;;;;;6.90;2.35;;;26.70;99.90;;;;;;20843612;28;20442;-79
2022/05/14 12:39:35;;;;;;;5.78;1.95;;;26.70;99.90;;;;;;20826195;28;20495;-79
2022/05/14 12:49:41;;;;;;;5.68;2.10;;;26.80;99.90;;;;;;20845642;28;20083;-79
2022/05/14 12:59:42;;;;;;;4.38;2.40;;;26.10;99.90;;;;;;20841877;28;20065;-79
2022/05/14 13:09:43;;;;;;;2.95;2.20;;;25.80;99.90;;;;;;20839635;28;20519;-78
2022/05/14 13:19:48;;;;;;;3.10;1.70;;;26.40;99.90;;;;;;20813888;28;20124;-80
2022/05/14 13:30:12;;;;;;;6.43;2.30;;;26.00;99.90;;;;;;20836790;28;20087;-79
2022/05/14 13:40:25;;;;;;;5.60;2.08;;;26.20;99.90;;;;;;20836886;28;20025;-79
2022/05/14 13:50:34;;;;;;;5.93;1.63;;;26.00;99.90;;;;;;20824548;28;20515;-79
2022/05/14 14:00:51;;;;;;;2.38;1.40;;;25.90;99.90;;;;;;20831328;28;20411;-79
2022/05/14 14:10:54;;;;;;;4.55;1.77;;;25.90;99.90;;;;;;20830218;28;20043;-80
2022/05/14 14:21:03;;;;;;;4.47;1.58;;;26.10;99.90;;;;;;20819467;28;20029;-79
2022/05/14 14:31:05;;;;;;;8.55;1.85;;;25.80;99.90;;;;;;20837075;28;20028;-79
2022/05/14 14:41:06;;;;;;;6.75;1.20;;;25.60;99.90;;;;;;20867553;28;20040;-78
2022/05/14 14:51:08;;;;;;;;;;;25.40;99.80;;;;;;20826461;22;20526;-75
2022/05/14 15:01:15;;;;;;;2.60;1.27;;;25.60;99.90;;;;;;20755711;28;19917;-75
2022/05/14 15:11:19;;;;;;;2.03;1.10;;;25.50;98.50;;;;;;20756307;28;20109;-75
2022/05/14 15:21:20;;;;;;;5.03;1.80;;;24.90;95.10;;;;;;20754786;28;20046;-75
2022/05/14 15:31:31;;;;;;;2.80;1.30;;;25.30;96.50;;;;;;20754525;28;20040;-75
2022/05/14 15:41:32;;;;;;;9.77;1.77;;;24.80;94.60;;;;;;20753524;28;20396;-74
2022/05/14 15:51:38;;;;;;;2.35;1.10;;;24.70;95.20;;;;;;20760094;28;20167;-74
2022/05/14 16:01:40;;;;;;;2.97;1.40;;;24.70;94.60;;;;;;20789266;28;20124;-73
2022/05/14 16:22:00;;;;;;;6.70;1.55;;;24.10;93.60;;;;;;20789090;28;20021;-74
2022/05/14 16:32:01;;;;;;;6.00;2.03;;;23.90;94.10;;;;;;20731720;28;20033;-73
2022/05/14 16:42:04;;;;;;;3.55;1.75;;;23.60;95.80;;;;;;20729760;28;20034;-74
2022/05/14 16:52:06;;;;;;;3.30;0.90;;;23.60;96.10;;;;;;20751220;28;20699;-74
2022/05/14 17:02:08;;;;;;;4.78;1.70;;;23.40;96.40;;;;;;20736241;28;20049;-74
2022/05/14 17:12:09;;;;;;;4.80;1.10;;;23.20;95.10;;;;;;20727658;28;20034;-74
2022/05/14 17:22:10;;;;;;;1.90;1.10;;;23.00;94.70;;;;;;20727507;28;20104;-74
2022/05/14 17:32:11;;;;;;;3.33;1.00;;;22.90;93.60;;;;;;20741778;28;20034;-75
2022/05/14 17:42:16;;;;;;;4.33;1.20;;;22.70;93.90;;;;;;20745123;28;20033;-74
2022/05/14 17:52:17;;;;;;;3.08;0.98;;;22.60;93.80;;;;;;20742598;28;20192;-74
2022/05/14 18:02:18;;;;;;;2.72;0.93;;;22.50;93.90;;;;;;20743765;28;20045;-75
2022/05/14 18:12:20;;;;;;;12.63;1.10;;;22.20;94.00;;;;;;20743427;28;20034;-74
2022/05/14 18:22:21;;;;;;;;;;;21.90;96.50;;;;;;20743263;28;20033;-74
2022/05/14 18:32:27;;;;;;;1.98;0.98;;;21.40;98.00;;;;;;20752096;28;19917;-74
2022/05/14 18:42:28;;;;;;;2.05;1.20;;;20.60;99.90;;;;;;20758926;28;20496;-74
2022/05/14 18:52:30;;;;;;;2.88;0.95;;;19.60;99.90;;;;;;20757860;28;20041;-74
2022/05/14 19:02:30;;;;;;;3.20;1.37;;;18.80;99.90;;;;;;20757180;28;20113;-74
2022/05/14 19:12:32;;;;;;;3.80;1.87;;;18.10;99.90;;;;;;20756968;28;20117;-74
2022/05/14 19:22:34;;;;;;;2.77;1.43;;;17.60;99.90;;;;;;20759937;28;20395;-75
2022/05/14 19:32:35;;;;;;;9.88;2.97;;;17.40;99.90;;;;;;20761815;28;20041;-75
2022/05/14 19:42:46;;;;;;;10.60;4.47;;;16.60;99.90;;;;;;20755804;28;20030;-75
2022/05/14 19:52:48;;;;;;;11.10;4.75;;;16.40;99.90;;;;;;20755536;28;20444;-75
2022/05/14 20:02:48;;;;;;;8.93;5.13;;;16.00;99.90;;;;;;20756111;28;20026;-73
2022/05/14 20:12:49;;;;;;;11.53;5.40;;;15.50;99.90;;;;;;20751911;28;20034;-74
2022/05/14 20:22:50;;;;;;;9.10;4.17;;;15.50;99.90;;;;;;20759760;28;20478;-74
2022/05/14 20:32:51;;;;;;;10.97;4.50;;;15.30;99.90;;;;;;20751706;28;20041;-74
2022/05/14 20:42:52;;;;;;;8.77;4.30;;;14.90;99.90;;;;;;20749769;28;20026;-74
2022/05/14 20:52:53;;;;;;;13.47;6.90;;;14.60;99.90;;;;;;20796274;23;20562;-77
2022/05/14 21:02:55;;;;;;;9.13;5.00;;;14.60;99.90;;;;;;20811949;28;20034;-77
2022/05/14 21:12:56;;;;;;;7.97;3.33;;;14.50;99.90;;;;;;20829072;28;20037;-76
2022/05/14 21:22:57;;;;;;;8.90;2.87;;;14.20;99.90;;;;;;20827900;28;20450;-77
2022/05/14 21:32:58;;;;;;;12.40;4.27;;;14.30;99.90;;;;;;20827333;28;20029;-77
2022/05/14 21:43:11;;;;;;;11.63;4.77;;;14.10;99.90;;;;;;20826977;28;20499;-75
2022/05/14 21:53:16;;;;;;;7.93;3.58;;;13.90;99.90;;;;;;20808271;28;20040;-76
2022/05/14 22:03:20;;;;;;;7.50;4.00;;;13.90;99.90;;;;;;20824791;28;20455;-76
2022/05/14 22:13:20;;;;;;;10.00;3.47;;;13.90;99.90;;;;;;20825241;28;20027;-76
2022/05/14 22:23:21;;;;;;;8.73;2.87;;;13.80;99.90;;;;;;20824750;28;20109;-76
2022/05/14 22:33:22;;;;;;;6.37;3.23;;;13.90;99.90;;;;;;20824428;28;20083;-77
2022/05/14 22:43:33;;;;;;;5.97;2.40;;;13.50;99.90;;;;;;20807283;28;20487;-76
2022/05/14 22:53:34;;;;;;;6.25;2.83;;;13.20;99.90;;;;;;20823688;28;20029;-77
2022/05/14 23:03:36;;;;;;;6.43;2.23;;;13.10;99.90;;;;;;20808820;28;20124;-76
2022/05/14 23:13:36;;;;;;;9.00;3.35;;;13.10;99.90;;;;;;20804218;28;20530;-76
2022/05/14 23:23:37;;;;;;;4.23;2.47;;;12.90;99.90;;;;;;20807380;28;20025;-77
2022/05/14 23:33:38;;;;;;;4.57;2.67;;;12.60;99.90;;;;;;20828949;28;20128;-77
2022/05/14 23:43:39;;;;;;;8.90;2.57;;;12.40;99.90;;;;;;20835028;28;20029;-77
2022/05/14 23:53:40;;;;;;;5.17;2.70;;;12.30;99.90;;;;;;20816884;28;20087;-76
